METAR Data
IDs: Format: Raw Decoded Include TAF

Data at: 2346 UTC 25 Oct 2021

LWSK 252330Z 08001KT CAVOK 02/00 Q1028 NOSIG